createdAt,value
2022-12-15T00:01:38.089Z,99967.97
2022-12-15T00:04:23.319Z,99956.09
2022-12-15T00:07:08.579Z,99992.41
2022-12-15T00:09:53.449Z,99966.44
2022-12-15T00:12:38.803Z,99956.03
2022-12-15T00:15:24.113Z,99995.53
2022-12-15T00:18:08.850Z,99983.91
2022-12-15T00:20:53.592Z,99977.41
2022-12-15T00:23:38.376Z,99999.31
2022-12-15T00:26:23.547Z,99957.91
2022-12-15T00:29:08.632Z,100006.06
2022-12-15T00:31:53.363Z,99996.50
2022-12-15T00:34:38.214Z,99963.91
2022-12-15T00:37:22.990Z,100010.59
2022-12-15T00:39:59.089Z,100000.38
2022-12-15T00:42:28.589Z,100024.56
2022-12-15T00:44:58.584Z,99975.19
2022-12-15T00:47:25.489Z,100019.38
2022-12-15T00:50:10.531Z,99981.88
2022-12-15T00:52:55.090Z,99990.78
2022-12-15T00:55:40.475Z,99987.91
2022-12-15T00:58:25.184Z,100017.69
2022-12-15T01:01:09.899Z,99998.84
2022-12-15T01:03:54.554Z,100025.97
2022-12-15T01:06:39.317Z,100023.47
2022-12-15T01:09:26.191Z,100036.91
2022-12-15T01:12:10.908Z,99999.66
2022-12-15T01:14:55.701Z,100016.09
2022-12-15T01:17:40.898Z,100036.91
2022-12-15T01:20:18.026Z,100046.56
2022-12-15T01:22:49.549Z,99976.53
2022-12-15T01:25:17.686Z,100012.72
2022-12-15T01:27:44.885Z,100012.59
2022-12-15T01:30:13.786Z,100033.94
2022-12-15T01:32:45.661Z,100016.41
2022-12-15T01:35:12.483Z,100020.91
2022-12-15T01:37:39.192Z,100005.25
2022-12-15T01:40:26.380Z,100062.84
2022-12-15T01:42:53.364Z,100046.50
2022-12-15T01:45:28.923Z,100058.75
2022-12-15T01:48:00.677Z,100033.47
2022-12-15T01:50:29.596Z,100070.38
2022-12-15T01:52:55.926Z,100016.56
2022-12-15T01:55:25.831Z,100025.03
2022-12-15T01:57:57.353Z,100084.00
2022-12-15T02:00:23.884Z,100063.97
2022-12-15T02:02:51.052Z,100005.59
2022-12-15T02:05:17.972Z,100035.03
2022-12-15T02:07:44.336Z,100017.63
2022-12-15T02:10:11.267Z,100056.09
2022-12-15T02:13:01.919Z,100024.75
2022-12-15T02:15:39.772Z,100042.69
2022-12-15T02:18:26.490Z,100048.94
2022-12-15T02:21:17.553Z,100074.66
2022-12-15T02:24:21.439Z,100060.91
2022-12-15T02:27:09.990Z,100039.50
2022-12-15T02:30:10.403Z,100072.28
2022-12-15T02:32:43.718Z,100077.47
2022-12-15T02:35:26.069Z,100056.69
2022-12-15T02:37:52.476Z,100032.13
2022-12-15T02:40:18.836Z,100039.38
2022-12-15T02:42:51.447Z,99940.13
2022-12-15T02:45:29.857Z,100063.88
2022-12-15T02:48:17.409Z,100051.41
2022-12-15T02:51:07.061Z,100103.09
2022-12-15T02:54:10.732Z,100104.13
2022-12-15T02:56:55.085Z,100105.69
2022-12-15T02:59:42.223Z,100080.38
2022-12-15T03:02:10.837Z,100081.78
2022-12-15T03:04:37.313Z,100030.56
2022-12-15T03:07:08.422Z,100064.50
2022-12-15T03:09:34.931Z,100097.25
2022-12-15T03:12:01.437Z,99985.97
2022-12-15T03:14:27.931Z,100013.38
2022-12-15T03:16:55.241Z,100115.44
2022-12-15T03:19:22.016Z,100055.44
2022-12-15T03:21:48.450Z,100089.03
2022-12-15T03:24:14.784Z,100070.25
2022-12-15T03:26:41.159Z,100058.31
2022-12-15T03:29:07.809Z,100103.09
2022-12-15T03:31:34.185Z,100149.88
2022-12-15T03:34:00.648Z,100121.50
2022-12-15T03:36:27.041Z,100120.97
2022-12-15T03:38:53.366Z,99988.53
2022-12-15T03:41:20.008Z,100135.00
2022-12-15T03:43:46.490Z,100056.00
2022-12-15T03:46:16.556Z,100094.69
2022-12-15T03:48:43.034Z,100104.91
2022-12-15T03:51:09.457Z,100087.97
2022-12-15T03:53:35.772Z,100102.78
2022-12-15T03:56:02.186Z,100124.13
2022-12-15T03:58:28.576Z,100093.63
2022-12-15T04:00:55.288Z,100092.25
2022-12-15T04:03:21.816Z,100072.72
2022-12-15T04:05:48.304Z,100107.44
2022-12-15T04:08:14.646Z,100090.94
2022-12-15T04:10:41.305Z,100094.13
2022-12-15T04:13:10.934Z,100119.91
2022-12-15T04:15:39.289Z,100146.78
2022-12-15T04:18:09.672Z,100141.53
2022-12-15T04:20:36.989Z,100091.31
2022-12-15T04:23:03.656Z,100078.84
2022-12-15T04:25:48.957Z,100096.19
2022-12-15T04:28:33.967Z,100123.97
2022-12-15T04:31:39.028Z,100155.91
2022-12-15T04:34:26.763Z,100123.31
2022-12-15T04:37:12.510Z,100071.38
2022-12-15T04:40:00.736Z,100154.34
2022-12-15T04:42:47.047Z,100067.00
2022-12-15T04:45:33.304Z,100107.66
2022-12-15T04:48:18.481Z,100108.94
2022-12-15T04:51:03.366Z,100103.84
2022-12-15T04:53:48.134Z,100091.91
2022-12-15T04:56:34.371Z,100145.28
2022-12-15T04:59:20.024Z,100133.94
2022-12-15T05:02:05.496Z,100115.88
2022-12-15T05:04:50.639Z,100087.22
2022-12-15T05:07:35.401Z,100056.94
2022-12-15T05:10:20.754Z,100129.72
2022-12-15T05:13:06.035Z,100153.03
2022-12-15T05:15:52.350Z,100170.22
2022-12-15T05:18:38.020Z,100128.06
2022-12-15T05:21:23.205Z,100145.28
2022-12-15T05:24:07.971Z,100138.38
2022-12-15T05:26:53.474Z,100119.50
2022-12-15T05:29:39.048Z,100178.41
2022-12-15T05:32:05.832Z,100134.38
2022-12-15T05:34:34.397Z,100153.56
2022-12-15T05:37:02.617Z,100183.06
2022-12-15T05:39:29.125Z,100200.91
2022-12-15T05:41:56.378Z,100169.91
2022-12-15T05:44:24.305Z,100197.00
2022-12-15T05:46:50.713Z,100181.25
2022-12-15T05:49:18.025Z,100189.44
2022-12-15T05:51:46.447Z,100199.66
2022-12-15T05:54:15.986Z,100166.72
2022-12-15T05:56:42.671Z,100162.28
2022-12-15T05:59:09.289Z,100193.25
2022-12-15T06:01:35.713Z,100172.56
2022-12-15T06:04:02.193Z,100178.78
2022-12-15T06:06:28.969Z,100157.72
2022-12-15T06:08:55.431Z,100213.69
2022-12-15T06:11:22.499Z,100218.91
2022-12-15T06:13:49.362Z,100188.75
2022-12-15T06:16:20.723Z,100218.03
2022-12-15T06:18:50.435Z,100190.44
2022-12-15T06:21:19.852Z,100166.28
2022-12-15T06:23:47.951Z,100204.88
2022-12-15T06:26:38.359Z,100153.09
2022-12-15T06:29:10.615Z,100182.25
2022-12-15T06:31:37.970Z,100172.66
2022-12-15T06:34:10.737Z,100186.38
2022-12-15T06:36:37.740Z,100210.88
2022-12-15T06:39:06.752Z,100202.31
2022-12-15T06:41:33.566Z,100202.22
2022-12-15T06:44:00.626Z,100134.13
2022-12-15T06:46:29.036Z,100145.03
2022-12-15T06:48:55.991Z,100198.06
2022-12-15T06:51:22.805Z,100199.78
2022-12-15T06:53:49.790Z,100154.44
2022-12-15T06:56:20.121Z,100205.25
2022-12-15T06:58:51.371Z,100167.94
2022-12-15T07:01:19.399Z,100178.41
2022-12-15T07:03:46.140Z,100213.91
2022-12-15T07:06:15.256Z,100224.59
2022-12-15T07:08:42.569Z,100229.69
2022-12-15T07:11:11.893Z,100243.31
2022-12-15T07:13:38.455Z,100187.34
2022-12-15T07:16:07.309Z,100239.53
2022-12-15T07:18:34.113Z,100208.31
2022-12-15T07:21:05.815Z,100246.22
2022-12-15T07:23:53.452Z,100227.00
2022-12-15T07:26:19.826Z,100237.38
2022-12-15T07:28:46.200Z,100232.13
2022-12-15T07:31:12.684Z,100220.16
2022-12-15T07:33:39.073Z,100252.97
2022-12-15T07:36:06.084Z,100259.81
2022-12-15T07:38:32.419Z,100219.81
2022-12-15T07:41:04.224Z,100244.72
2022-12-15T07:43:31.781Z,100228.09
2022-12-15T07:45:59.070Z,100263.66
2022-12-15T07:48:27.102Z,100221.25
2022-12-15T07:51:02.875Z,100242.91
2022-12-15T07:53:37.268Z,100240.59
2022-12-15T07:56:07.955Z,100261.44
2022-12-15T07:58:35.369Z,100257.97
2022-12-15T08:01:04.486Z,100208.56
2022-12-15T08:03:31.445Z,100192.19
2022-12-15T08:06:03.792Z,100227.16
2022-12-15T08:08:31.194Z,100217.56
2022-12-15T08:10:57.752Z,100219.09
2022-12-15T08:13:52.980Z,100224.44
2022-12-15T08:16:11.128Z,100226.31
2022-12-15T08:18:37.535Z,100247.22
2022-12-15T08:21:06.567Z,100259.50
2022-12-15T08:23:33.423Z,100247.50
2022-12-15T08:26:13.511Z,100267.84
2022-12-15T08:28:40.537Z,100259.34
2022-12-15T08:31:12.711Z,100270.47
2022-12-15T08:33:39.605Z,100221.09
2022-12-15T08:36:09.074Z,100273.03
2022-12-15T08:38:38.864Z,100275.84
2022-12-15T08:41:11.180Z,100271.78
2022-12-15T08:43:45.769Z,100232.13
2022-12-15T08:46:17.276Z,100271.22
2022-12-15T08:48:44.280Z,100286.28
2022-12-15T08:51:10.970Z,100291.53
2022-12-15T08:53:37.374Z,100305.72
2022-12-15T08:56:15.704Z,100299.84
2022-12-15T08:58:43.101Z,100289.75
2022-12-15T09:01:23.725Z,100279.44
2022-12-15T09:03:53.651Z,100293.50
2022-12-15T09:06:27.000Z,100268.38
2022-12-15T09:08:59.011Z,100303.06
2022-12-15T09:11:26.619Z,100286.78
2022-12-15T09:13:53.254Z,100254.00
2022-12-15T09:16:20.697Z,100283.31
2022-12-15T09:18:53.487Z,100320.84
2022-12-15T09:21:22.973Z,100329.53
2022-12-15T09:23:52.636Z,100320.94
2022-12-15T09:26:21.252Z,100331.53
2022-12-15T09:28:50.240Z,100299.66
2022-12-15T09:31:22.909Z,100288.44
2022-12-15T09:33:51.190Z,100330.03
2022-12-15T09:36:17.548Z,100287.91
2022-12-15T09:38:44.550Z,100306.34
2022-12-15T09:41:13.934Z,100344.53
2022-12-15T09:43:51.207Z,100328.16
2022-12-15T09:46:34.186Z,100301.22
2022-12-15T09:49:06.048Z,100343.69
2022-12-15T09:51:44.687Z,100351.00
2022-12-15T09:54:11.765Z,100282.81
2022-12-15T09:56:43.879Z,100348.50
2022-12-15T09:59:22.450Z,100358.41
2022-12-15T10:02:10.733Z,100356.97
2022-12-15T10:05:04.512Z,100326.81
2022-12-15T10:07:40.123Z,100345.63
2022-12-15T10:10:18.178Z,100333.63
2022-12-15T10:12:57.620Z,100284.41
2022-12-15T10:15:33.853Z,100330.16
2022-12-15T10:18:16.184Z,100311.25
2022-12-15T10:20:42.794Z,100311.25
2022-12-15T10:23:13.137Z,100308.75
2022-12-15T10:25:43.916Z,100320.13
2022-12-15T10:28:16.551Z,100339.28
2022-12-15T10:30:59.778Z,100345.59
2022-12-15T10:33:30.734Z,100306.72
2022-12-15T10:35:57.745Z,100349.94
2022-12-15T10:38:34.349Z,100312.13
2022-12-15T10:41:12.938Z,100347.75
2022-12-15T10:43:45.384Z,100350.59
2022-12-15T10:46:18.707Z,100325.59
2022-12-15T10:49:16.951Z,100314.38
2022-12-15T10:51:47.131Z,100342.13
2022-12-15T10:54:15.260Z,100327.38
2022-12-15T10:56:53.393Z,100318.19
2022-12-15T10:59:25.695Z,100354.56
2022-12-15T11:01:52.442Z,100322.72
2022-12-15T11:04:31.469Z,100348.69
2022-12-15T11:07:02.761Z,100342.84
2022-12-15T11:09:34.883Z,100325.66
2022-12-15T11:12:20.411Z,100341.28
2022-12-15T11:14:49.434Z,100313.81
2022-12-15T11:17:20.408Z,100326.88
2022-12-15T11:19:46.834Z,100331.22
2022-12-15T11:22:22.493Z,100290.78
2022-12-15T11:25:03.289Z,100325.47
2022-12-15T11:27:35.890Z,100295.22
2022-12-15T11:30:20.867Z,100291.94
2022-12-15T11:32:53.112Z,100299.00
2022-12-15T11:35:25.298Z,100267.88
2022-12-15T11:38:12.451Z,100288.66
2022-12-15T11:40:40.839Z,100291.22
2022-12-15T11:43:27.083Z,100301.53
2022-12-15T11:46:01.857Z,100291.97
2022-12-15T11:48:38.995Z,100276.44
2022-12-15T11:51:35.414Z,100274.75
2022-12-15T11:54:10.575Z,100305.84
2022-12-15T11:56:45.396Z,100300.69
2022-12-15T11:59:42.266Z,100300.69
2022-12-15T12:02:38.345Z,100310.16
2022-12-15T12:05:19.773Z,100266.19
2022-12-15T12:07:52.638Z,100289.50
2022-12-15T12:10:34.740Z,100268.00
2022-12-15T12:13:20.744Z,100278.38
2022-12-15T12:16:26.021Z,100299.09
2022-12-15T12:19:08.366Z,100299.06
2022-12-15T12:21:44.992Z,100275.03
2022-12-15T12:24:19.814Z,100253.47
2022-12-15T12:26:54.798Z,100307.06
2022-12-15T12:29:21.025Z,100309.59
2022-12-15T12:32:05.194Z,100276.88
2022-12-15T12:34:39.826Z,100297.63
2022-12-15T12:37:20.782Z,100257.06
2022-12-15T12:39:50.909Z,100271.88
2022-12-15T12:42:44.925Z,100263.22
2022-12-15T12:45:14.922Z,100246.78
2022-12-15T12:47:47.087Z,100264.91
2022-12-15T12:50:20.397Z,100276.19
2022-12-15T12:52:57.247Z,100258.06
2022-12-15T12:55:29.525Z,100260.69
2022-12-15T12:57:56.618Z,100252.91
2022-12-15T13:00:26.559Z,100257.25
2022-12-15T13:02:52.940Z,100239.19
2022-12-15T13:05:27.439Z,100239.28
2022-12-15T13:08:19.002Z,100225.50
2022-12-15T13:10:47.505Z,100230.63
2022-12-15T13:13:29.812Z,100231.56
2022-12-15T13:16:17.917Z,100198.75
2022-12-15T13:18:58.333Z,100199.66
2022-12-15T13:21:44.045Z,100220.38
2022-12-15T13:24:46.218Z,100210.00
2022-12-15T13:27:17.035Z,100191.00
2022-12-15T13:30:14.045Z,100185.91
2022-12-15T13:32:43.770Z,100196.28
2022-12-15T13:35:13.120Z,100196.22
2022-12-15T13:37:48.943Z,100192.81
2022-12-15T13:40:50.587Z,100185.94
2022-12-15T13:43:26.254Z,100182.56
2022-12-15T13:46:00.228Z,100165.28
2022-12-15T13:48:29.402Z,100189.41
2022-12-15T13:51:16.631Z,100177.34
2022-12-15T13:53:51.508Z,100173.91
2022-12-15T13:56:28.297Z,100148.06
2022-12-15T13:59:02.894Z,100109.25
2022-12-15T14:04:18.311Z,100160.03
2022-12-15T14:06:50.904Z,100173.88
2022-12-15T14:09:22.454Z,100155.75
2022-12-15T14:11:54.098Z,100145.44
2022-12-15T14:14:26.400Z,100148.88
2022-12-15T14:16:57.675Z,100161.88
2022-12-15T14:19:25.516Z,100153.25
2022-12-15T14:21:57.767Z,100133.41
2022-12-15T14:24:40.225Z,100117.94
2022-12-15T14:27:07.407Z,100150.66
2022-12-15T14:29:33.704Z,100123.91
2022-12-15T14:32:00.767Z,100097.22
2022-12-15T14:34:35.172Z,100108.41
2022-12-15T14:37:07.582Z,100110.06
2022-12-15T14:39:42.323Z,100107.44
2022-12-15T14:42:23.219Z,100091.03
2022-12-15T14:47:36.519Z,100109.06
2022-12-15T14:50:04.154Z,100079.78
2022-12-15T14:52:42.744Z,100149.53
2022-12-15T14:55:21.328Z,100144.34
2022-12-15T14:57:47.917Z,100120.03
2022-12-15T15:00:35.914Z,100150.13
2022-12-15T15:03:10.262Z,100148.03
2022-12-15T15:03:18.205Z,100148.38
2022-12-15T15:05:48.464Z,100150.09
2022-12-15T15:08:20.737Z,100153.53
2022-12-15T15:10:47.159Z,100136.31
2022-12-15T15:13:26.731Z,100148.34
2022-12-15T15:15:55.265Z,100134.44
2022-12-15T15:18:27.944Z,100162.84
2022-12-15T15:21:01.262Z,100128.34
2022-12-15T15:23:27.765Z,100145.56
2022-12-15T15:25:56.460Z,100112.63
2022-12-15T15:28:28.639Z,100159.16
2022-12-15T15:31:05.239Z,100170.41
2022-12-15T15:33:32.532Z,100175.63
2022-12-15T15:36:01.295Z,100180.81
2022-12-15T15:38:37.848Z,100186.84
2022-12-15T15:41:23.259Z,100173.06
2022-12-15T15:43:49.586Z,100187.78
2022-12-15T15:46:20.103Z,100197.13
2022-12-15T15:48:48.738Z,100147.06
2022-12-15T15:51:15.270Z,100205.63
2022-12-15T15:53:41.691Z,100155.56
2022-12-15T15:56:12.073Z,100185.78
2022-12-15T15:58:38.458Z,100162.53
2022-12-15T16:01:11.173Z,100193.56
2022-12-15T16:03:39.848Z,100194.34
2022-12-15T16:06:20.465Z,100210.63
2022-12-15T16:08:50.624Z,100235.53
2022-12-15T16:11:17.412Z,100207.81
2022-12-15T16:13:44.673Z,100197.28
2022-12-15T16:16:22.888Z,100206.72
2022-12-15T16:18:49.475Z,100238.72
2022-12-15T16:21:17.771Z,100186.84
2022-12-15T16:23:46.890Z,100186.13
2022-12-15T16:26:16.110Z,100241.38
2022-12-15T16:28:42.960Z,100231.88
2022-12-15T16:31:15.635Z,100179.28
2022-12-15T16:33:42.095Z,100234.56
2022-12-15T16:36:13.754Z,100240.59
2022-12-15T16:38:40.748Z,100242.22
2022-12-15T16:41:11.233Z,100249.88
2022-12-15T16:43:41.541Z,100226.41
2022-12-15T16:46:13.921Z,100256.56
2022-12-15T16:48:41.080Z,100230.72
2022-12-15T16:51:10.629Z,100259.09
2022-12-15T16:53:41.008Z,100257.97
2022-12-15T16:56:12.806Z,100249.09
2022-12-15T16:58:39.126Z,100240.38
2022-12-15T17:01:05.470Z,100248.16
2022-12-15T17:03:31.997Z,100209.28
2022-12-15T17:06:01.856Z,100229.09
2022-12-15T17:08:37.869Z,100263.53
2022-12-15T17:11:04.679Z,100196.88
2022-12-15T17:13:45.413Z,100218.34
2022-12-15T17:16:14.426Z,100207.72
2022-12-15T17:18:42.817Z,100255.16
2022-12-15T17:21:26.826Z,100258.78
2022-12-15T17:23:56.690Z,100277.75
2022-12-15T17:26:31.923Z,100264.47
2022-12-15T17:29:15.724Z,100270.38
2022-12-15T17:31:42.073Z,100232.63
2022-12-15T17:34:30.197Z,100283.94
2022-12-15T17:36:59.201Z,100261.75
2022-12-15T17:39:26.563Z,100298.97
2022-12-15T17:42:02.607Z,100264.34
2022-12-15T17:44:36.058Z,100296.91
2022-12-15T17:47:05.505Z,100227.69
2022-12-15T17:49:36.018Z,100283.72
2022-12-15T17:52:16.707Z,100268.94
2022-12-15T17:54:43.220Z,100280.25
2022-12-15T17:57:11.675Z,100276.75
2022-12-15T17:59:38.111Z,100273.78
2022-12-15T18:02:04.536Z,100290.81
2022-12-15T18:04:31.308Z,100283.91
2022-12-15T18:07:01.478Z,100245.81
2022-12-15T18:09:28.544Z,100257.94
2022-12-15T18:11:54.878Z,100266.50
2022-12-15T18:14:22.743Z,100296.19
2022-12-15T18:16:49.306Z,100244.25
2022-12-15T18:19:15.683Z,100266.50
2022-12-15T18:21:42.307Z,100271.28
2022-12-15T18:24:19.189Z,100248.53
2022-12-15T18:26:45.515Z,100250.13
2022-12-15T18:29:18.088Z,100258.72
2022-12-15T18:31:47.002Z,100237.91
2022-12-15T18:34:17.281Z,100234.56
2022-12-15T18:36:43.878Z,100258.97
2022-12-15T18:39:23.469Z,100234.06
2022-12-15T18:41:50.506Z,100244.44
2022-12-15T18:44:30.031Z,100241.72
2022-12-15T18:46:56.461Z,100232.13
2022-12-15T18:49:23.885Z,100210.31
2022-12-15T18:51:50.408Z,100240.00
2022-12-15T18:54:19.606Z,100265.16
2022-12-15T18:56:46.035Z,100286.50
2022-12-15T18:59:17.040Z,100284.72
2022-12-15T19:01:45.407Z,100257.81
2022-12-15T19:04:12.374Z,100255.78
2022-12-15T19:06:40.453Z,100281.25
2022-12-15T19:09:18.951Z,100255.78
2022-12-15T19:12:06.857Z,100143.56
2022-12-15T19:14:42.562Z,100211.38
2022-12-15T19:17:30.546Z,100222.78
2022-12-15T19:20:15.391Z,100244.41
2022-12-15T19:22:43.082Z,100254.03
2022-12-15T19:25:25.060Z,100208.06
2022-12-15T19:27:58.315Z,100275.59
2022-12-15T19:30:29.187Z,100250.34
2022-12-15T19:32:55.678Z,100267.56
2022-12-15T19:35:22.460Z,100281.84
2022-12-15T19:37:49.827Z,100176.09
2022-12-15T19:40:20.888Z,100225.50
2022-12-15T19:42:48.869Z,100175.16
2022-12-15T19:45:17.936Z,100265.13
2022-12-15T19:47:44.669Z,100278.84
2022-12-15T19:50:19.489Z,100245.06
2022-12-15T19:52:48.984Z,100218.25
2022-12-15T19:55:17.438Z,100262.41
2022-12-15T19:57:44.527Z,100284.88
2022-12-15T20:00:21.744Z,100256.13
2022-12-15T20:02:55.231Z,100268.91
2022-12-15T20:05:23.725Z,100287.13
2022-12-15T20:07:51.742Z,100253.88
2022-12-15T20:10:29.408Z,100263.75
2022-12-15T20:12:58.594Z,100265.91
2022-12-15T20:15:26.189Z,100282.56
2022-12-15T20:17:56.882Z,100247.38
2022-12-15T20:20:25.914Z,100260.44
2022-12-15T20:22:55.898Z,100210.25
2022-12-15T20:25:36.526Z,100279.31
2022-12-15T20:28:04.489Z,100278.97
2022-12-15T20:30:35.111Z,100211.47
2022-12-15T20:33:03.748Z,100250.41
2022-12-15T20:35:33.093Z,100269.38
2022-12-15T20:38:04.210Z,100255.31
2022-12-15T20:40:31.301Z,100248.09
2022-12-15T20:42:57.826Z,100248.47
2022-12-15T20:45:26.657Z,100205.38
2022-12-15T20:47:55.655Z,100224.66
2022-12-15T20:50:35.298Z,100264.19
2022-12-15T20:53:02.106Z,100264.28
2022-12-15T20:55:28.888Z,100258.97
2022-12-15T20:57:55.261Z,100201.53
2022-12-15T21:00:22.395Z,100245.22
2022-12-15T21:02:49.811Z,100247.44
2022-12-15T21:05:24.328Z,100276.66
2022-12-15T21:07:51.868Z,100240.44
2022-12-15T21:10:20.250Z,100285.81
2022-12-15T21:12:49.278Z,100236.56
2022-12-15T21:15:17.315Z,100275.50
2022-12-15T21:17:44.084Z,100279.69
2022-12-15T21:20:12.680Z,100273.50
2022-12-15T21:22:40.379Z,100274.06
2022-12-15T21:25:26.033Z,100275.78
2022-12-15T21:27:52.894Z,100277.63
2022-12-15T21:30:21.900Z,100241.97
2022-12-15T21:32:49.403Z,100249.63
2022-12-15T21:35:18.589Z,100261.88
2022-12-15T21:37:49.473Z,100215.41
2022-12-15T21:40:17.933Z,100275.91
2022-12-15T21:42:44.334Z,100257.56
2022-12-15T21:45:22.907Z,100291.94
2022-12-15T21:48:08.776Z,100241.91
2022-12-15T21:50:36.649Z,100293.34
2022-12-15T21:53:04.982Z,100246.63
2022-12-15T21:55:31.684Z,100300.13
2022-12-15T21:57:58.377Z,100299.84
2022-12-15T22:00:25.193Z,100240.97
2022-12-15T22:02:55.068Z,100266.53
2022-12-15T22:05:30.174Z,100311.53
2022-12-15T22:08:23.010Z,100277.63
2022-12-15T22:10:51.082Z,100314.44
2022-12-15T22:13:21.031Z,100249.78
2022-12-15T22:15:48.886Z,100287.13
2022-12-15T22:18:19.672Z,100288.47
2022-12-15T22:20:50.978Z,100310.19
2022-12-15T22:23:18.480Z,100298.34
2022-12-15T22:25:47.461Z,100276.59
2022-12-15T22:28:20.589Z,100278.25
2022-12-15T22:30:47.844Z,100311.88
2022-12-15T22:33:21.680Z,100309.47
2022-12-15T22:35:53.247Z,100277.88
2022-12-15T22:38:23.254Z,100313.53
2022-12-15T22:40:53.428Z,100284.13
2022-12-15T22:43:34.035Z,100320.69
2022-12-15T22:46:01.162Z,100324.28
2022-12-15T22:48:34.096Z,100297.53
2022-12-15T22:51:01.602Z,100313.50
2022-12-15T22:53:31.540Z,100299.25
2022-12-15T22:55:59.353Z,100282.59
2022-12-15T22:58:32.448Z,100291.00
2022-12-15T23:00:59.881Z,100289.75
2022-12-15T23:03:29.665Z,100287.63
2022-12-15T23:05:56.622Z,100319.41
2022-12-15T23:08:22.981Z,100282.69
2022-12-15T23:11:07.949Z,100283.81
2022-12-15T23:13:34.670Z,100283.63
2022-12-15T23:16:19.964Z,100314.31
2022-12-15T23:18:47.637Z,100276.50
2022-12-15T23:21:14.015Z,100279.38
2022-12-15T23:23:40.508Z,100303.81
2022-12-15T23:26:07.077Z,100305.63
2022-12-15T23:28:33.928Z,100251.75
2022-12-15T23:31:00.379Z,100289.94
2022-12-15T23:33:28.326Z,100323.31
2022-12-15T23:35:56.155Z,100331.69
2022-12-15T23:38:23.314Z,100254.19
2022-12-15T23:40:53.074Z,100333.19
2022-12-15T23:43:20.617Z,100274.78
2022-12-15T23:45:56.027Z,100298.94
2022-12-15T23:48:22.437Z,100312.38
2022-12-15T23:50:48.750Z,100280.47
2022-12-15T23:53:15.234Z,100255.44
2022-12-15T23:55:41.617Z,100326.59
2022-12-15T23:58:08.155Z,100324.13
